Federal Oshima — VRVY8 — position and weather

sailwx.info

Track history (hours):
 
Tides and Currents Weather Stations Pressure Air Temp Water Temp Dewpoint Dewpoint Depression Visibility Wind Speed Wind Dir Waves Ship Positions

Federal Oshima

Last reported at 2015-May-12 20:18 UTC. Time now 2015-May-29 10:25 UTC.
Position N 45°13' W 086°25'.
Warning: this ship's position is 16 days out of date.

Length 200 m; draft 6.9 m.

Type: Cargo ship. MMSI: 477675000.

Date/timePositionNaut miles runAvg speedWind from/ knotsBaromVisibWave heightAir tempDewpointWater temp
2015-May-12 20:18N 45°13' W 086°25'810.1
2015-May-12 19:33N 45°20' W 086°20'1210.1
2015-May-12 18:22N 45°31' W 086°13'810.2
2015-May-12 17:33N 45°38' W 086°08'10 9.8
2015-May-12 16:33N 45°45' W 085°57'1010.2
2015-May-12 15:33N 45°50' W 085°44'10 9.9
2015-May-12 14:33N 45°53' W 085°31'1010.4
2015-May-12 13:33N 45°52' W 085°16'1010.0
2015-May-12 12:33N 45°51' W 085°02'10 9.7
2015-May-12 11:33N 45°49' W 084°48'9 9.2
2015-May-12 10:33N 45°46' W 084°36'10 9.7
2015-May-12 09:33N 45°42' W 084°24'9 9.1
2015-May-12 08:33N 45°39' W 084°11'1010.3
2015-May-12 07:33N 45°35' W 083°58'1110.5
2015-May-12 06:30N 45°30' W 083°44'239 6.7
2015-May-10 19:08N 42°29' W 080°08'813.5
2015-May-10 18:33N 42°32' W 079°59'1413.6
2015-May-10 17:34N 42°39' W 079°43'172 7.2
2015-May-09 17:34N 44°08' W 076°21'1 0.6
2015-May-09 16:34N 44°08' W 076°21'0 0.1
2015-May-09 15:34N 44°08' W 076°22'4 4.3
2015-May-09 14:34N 44°11' W 076°19'106 7.6
2015-May-09 00:33N 45°13' W 074°17'1010.0
2015-May-08 23:31N 45°13' W 074°03'7 7.5
2015-May-08 22:34N 45°18' W 073°56'1 1.2
2015-May-08 21:33N 45°19' W 073°55'9 8.9
2015-May-08 20:33N 45°24' W 073°44'7 6.5
2015-May-08 19:33N 45°24' W 073°35'1 1.4
2015-May-08 18:32N 45°24' W 073°33'59 4.5
2015-May-08 05:31N 46°14' W 072°46'1010.3
2015-May-08 04:33N 46°18' W 072°34'1010.0
2015-May-08 03:33N 46°25' W 072°23'1010.2
2015-May-08 02:33N 46°32' W 072°11'  
Track history (hours):
 
Tides and Currents Weather Stations Pressure Air Temp Water Temp Dewpoint Dewpoint Depression Visibility Wind Speed Wind Dir Waves Ship Positions

Federal Oshima

Last reported at 2015-May-12 20:18 UTC. Time now 2015-May-29 10:25 UTC.
Position N 45°13' W 086°25'.
Warning: this ship's position is 16 days out of date.

Length 200 m; draft 6.9 m.

Type: Cargo ship. MMSI: 477675000.

Date/timePositionNaut miles runAvg speedWind from/ knotsBaromVisibWave heightAir tempDewpointWater temp
2015-May-12 20:18N 45°13' W 086°25'810.1
2015-May-12 19:33N 45°20' W 086°20'1210.1
2015-May-12 18:22N 45°31' W 086°13'810.2
2015-May-12 17:33N 45°38' W 086°08'10 9.8
2015-May-12 16:33N 45°45' W 085°57'1010.2
2015-May-12 15:33N 45°50' W 085°44'10 9.9
2015-May-12 14:33N 45°53' W 085°31'1010.4
2015-May-12 13:33N 45°52' W 085°16'1010.0
2015-May-12 12:33N 45°51' W 085°02'10 9.7
2015-May-12 11:33N 45°49' W 084°48'9 9.2
2015-May-12 10:33N 45°46' W 084°36'10 9.7
2015-May-12 09:33N 45°42' W 084°24'9 9.1
2015-May-12 08:33N 45°39' W 084°11'1010.3
2015-May-12 07:33N 45°35' W 083°58'1110.5
2015-May-12 06:30N 45°30' W 083°44'239 6.7
2015-May-10 19:08N 42°29' W 080°08'813.5
2015-May-10 18:33N 42°32' W 079°59'1413.6
2015-May-10 17:34N 42°39' W 079°43'172 7.2
2015-May-09 17:34N 44°08' W 076°21'1 0.6
2015-May-09 16:34N 44°08' W 076°21'0 0.1
2015-May-09 15:34N 44°08' W 076°22'4 4.3
2015-May-09 14:34N 44°11' W 076°19'106 7.6
2015-May-09 00:33N 45°13' W 074°17'1010.0
2015-May-08 23:31N 45°13' W 074°03'7 7.5
2015-May-08 22:34N 45°18' W 073°56'1 1.2
2015-May-08 21:33N 45°19' W 073°55'9 8.9
2015-May-08 20:33N 45°24' W 073°44'7 6.5
2015-May-08 19:33N 45°24' W 073°35'1 1.4
2015-May-08 18:32N 45°24' W 073°33'59 4.5
2015-May-08 05:31N 46°14' W 072°46'1010.3
2015-May-08 04:33N 46°18' W 072°34'1010.0
2015-May-08 03:33N 46°25' W 072°23'1010.2
2015-May-08 02:33N 46°32' W 072°11'  

Dump ship's entire track history